createdAt,value
2019-04-11T00:01:45.211Z,3.51
2019-04-11T00:03:49.585Z,3.53
2019-04-11T00:05:57.292Z,3.48
2019-04-11T00:08:05.980Z,3.53
2019-04-11T00:10:14.503Z,3.46
2019-04-11T00:12:22.209Z,3.42
2019-04-11T00:14:29.722Z,3.39
2019-04-11T00:16:37.409Z,3.35
2019-04-11T00:18:45.046Z,3.43
2019-04-11T00:20:52.834Z,3.34
2019-04-11T00:23:00.361Z,3.37
2019-04-11T00:25:09.421Z,3.32
2019-04-11T00:27:17.201Z,3.34
2019-04-11T00:29:24.716Z,3.17
2019-04-11T00:31:32.699Z,3.33
2019-04-11T00:33:40.468Z,3.14
2019-04-11T00:35:48.086Z,3.14
2019-04-11T00:37:55.604Z,3.27
2019-04-11T00:40:03.891Z,3.22
2019-04-11T00:42:12.420Z,3.21
2019-04-11T00:44:20.913Z,3.13
2019-04-11T00:46:28.683Z,3.08
2019-04-11T00:48:37.614Z,3.02
2019-04-11T00:50:45.457Z,2.82
2019-04-11T00:52:53.723Z,2.63
2019-04-11T00:55:01.340Z,2.57
2019-04-11T00:57:08.998Z,2.40
2019-04-11T00:59:16.522Z,2.47
2019-04-11T01:01:24.046Z,2.19
2019-04-11T01:03:31.529Z,2.12
2019-04-11T01:05:39.425Z,1.87
2019-04-11T01:07:47.211Z,1.84
2019-04-11T01:09:54.866Z,2.09
2019-04-11T01:12:02.691Z,2.21
2019-04-11T01:14:10.301Z,2.34
2019-04-11T01:16:43.031Z,2.63
2019-04-11T01:18:50.571Z,2.72
2019-04-11T01:20:58.035Z,2.78
2019-04-11T01:23:06.769Z,2.59
2019-04-11T01:25:14.751Z,2.65
2019-04-11T01:27:23.614Z,2.79
2019-04-11T01:29:31.452Z,2.75
2019-04-11T01:31:39.899Z,2.61
2019-04-11T01:33:48.376Z,2.49
2019-04-11T01:35:55.877Z,2.35
2019-04-11T01:38:04.055Z,2.23
2019-04-11T01:40:11.834Z,2.21
2019-04-11T01:42:19.602Z,2.14
2019-04-11T01:44:28.313Z,2.08
2019-04-11T01:46:36.134Z,2.04
2019-04-11T01:48:52.057Z,2.04
2019-04-11T01:50:59.722Z,2.24
2019-04-11T01:53:07.394Z,2.14
2019-04-11T01:55:14.991Z,2.10
2019-04-11T01:57:22.454Z,2.11
2019-04-11T01:59:31.173Z,2.13
2019-04-11T02:01:49.406Z,2.20
2019-04-11T02:04:03.690Z,2.30
2019-04-11T02:06:11.820Z,2.29
2019-04-11T02:08:19.588Z,2.19
2019-04-11T02:10:28.594Z,2.22
2019-04-11T02:12:37.349Z,2.16
2019-04-11T02:14:45.903Z,2.16
2019-04-11T02:16:53.705Z,2.19
2019-04-11T02:19:01.667Z,2.12
2019-04-11T02:21:09.435Z,1.97
2019-04-11T02:23:21.550Z,1.97
2019-04-11T02:25:48.971Z,1.90
2019-04-11T02:27:58.101Z,1.92
2019-04-11T02:30:08.592Z,1.99
2019-04-11T02:32:18.259Z,2.02
2019-04-11T02:34:25.442Z,1.92
2019-04-11T02:36:34.199Z,2.05
2019-04-11T02:38:42.180Z,2.10
2019-04-11T02:40:50.695Z,2.22
2019-04-11T02:42:59.400Z,2.21
2019-04-11T02:45:22.472Z,2.30
2019-04-11T02:47:24.078Z,2.34
2019-04-11T02:49:27.796Z,2.32
2019-04-11T02:51:36.798Z,2.42
2019-04-11T02:53:45.102Z,2.53
2019-04-11T02:55:54.296Z,2.57
2019-04-11T02:58:04.015Z,2.59
2019-04-11T03:00:13.082Z,2.59
2019-04-11T03:02:21.470Z,2.60
2019-04-11T03:04:30.950Z,2.42
2019-04-11T03:06:39.643Z,2.32
2019-04-11T03:08:48.964Z,2.41
2019-04-11T03:10:57.724Z,2.31
2019-04-11T03:13:05.588Z,2.35
2019-04-11T03:15:28.726Z,2.37
2019-04-11T03:17:28.694Z,2.33
2019-04-11T03:19:43.962Z,2.48
2019-04-11T03:21:44.431Z,2.60
2019-04-11T03:23:51.372Z,2.34
2019-04-11T03:26:00.637Z,2.26
2019-04-11T03:28:13.735Z,2.24
2019-04-11T03:30:24.753Z,2.22
2019-04-11T03:35:35.004Z,2.55
2019-04-11T03:39:15.167Z,2.55
2019-04-11T03:41:25.291Z,2.46
2019-04-11T03:43:28.154Z,2.32
2019-04-11T03:45:43.521Z,2.31
2019-04-11T03:47:44.846Z,2.29
2019-04-11T03:49:51.070Z,2.17
2019-04-11T03:51:53.152Z,2.02
2019-04-11T03:54:02.186Z,2.04
2019-04-11T03:56:09.904Z,1.95
2019-04-11T03:58:19.661Z,2.08
2019-04-11T04:00:33.559Z,2.03
2019-04-11T04:02:37.241Z,2.04
2019-04-11T04:04:46.573Z,1.91
2019-04-11T04:06:55.209Z,2.11
2019-04-11T04:09:04.252Z,2.20
2019-04-11T04:11:27.053Z,2.17
2019-04-11T04:13:36.613Z,2.08
2019-04-11T04:16:11.984Z,2.16
2019-04-11T04:18:29.908Z,2.03
2019-04-11T04:20:59.699Z,2.02
2019-04-11T04:23:20.883Z,2.09
2019-04-11T04:25:29.116Z,2.20
2019-04-11T04:27:36.659Z,2.34
2019-04-11T04:29:49.013Z,2.36
2019-04-11T04:31:54.989Z,2.25
2019-04-11T04:34:03.874Z,2.29
2019-04-11T04:36:13.847Z,2.28
2019-04-11T04:38:21.200Z,2.30
2019-04-11T04:40:49.537Z,2.27
2019-04-11T04:42:47.710Z,2.35
2019-04-11T04:44:50.986Z,2.31
2019-04-11T04:47:13.589Z,2.40
2019-04-11T04:49:11.187Z,2.20
2019-04-11T04:51:20.566Z,2.35
2019-04-11T04:53:28.489Z,2.46
2019-04-11T04:55:36.804Z,2.60
2019-04-11T04:57:44.985Z,2.47
2019-04-11T04:59:53.205Z,2.52
2019-04-11T05:02:01.765Z,2.60
2019-04-11T05:04:11.339Z,2.66
2019-04-11T05:06:20.493Z,2.71
2019-04-11T05:08:28.226Z,2.68
2019-04-11T05:10:36.006Z,2.61
2019-04-11T05:12:43.918Z,2.62
2019-04-11T05:14:51.992Z,2.53
2019-04-11T05:17:00.419Z,2.59
2019-04-11T05:19:08.532Z,2.57
2019-04-11T05:21:17.058Z,2.51
2019-04-11T05:23:25.496Z,2.58
2019-04-11T05:25:32.986Z,2.57
2019-04-11T05:27:40.395Z,2.45
2019-04-11T05:29:47.777Z,2.45
2019-04-11T05:31:55.250Z,2.26
2019-04-11T05:34:03.502Z,2.28
2019-04-11T05:36:12.222Z,2.31
2019-04-11T05:38:20.731Z,2.44
2019-04-11T05:40:28.446Z,2.44
2019-04-11T05:42:35.865Z,2.35
2019-04-11T05:44:43.298Z,2.49
2019-04-11T05:46:56.189Z,2.43
2019-04-11T05:49:09.277Z,2.41
2019-04-11T05:51:21.190Z,2.42
2019-04-11T05:53:25.889Z,2.50
2019-04-11T05:55:41.416Z,2.61
2019-04-11T05:57:48.723Z,2.59
2019-04-11T05:59:57.669Z,2.69
2019-04-11T06:02:13.013Z,2.63
2019-04-11T06:04:28.602Z,2.76
2019-04-11T06:06:58.906Z,2.68
2019-04-11T06:09:13.440Z,2.66
2019-04-11T06:11:28.660Z,2.82
2019-04-11T06:13:53.482Z,2.87
2019-04-11T06:16:02.843Z,2.90
2019-04-11T06:18:25.957Z,3.02
2019-04-11T06:20:49.915Z,3.15
2019-04-11T06:23:08.164Z,3.15
2019-04-11T06:25:28.028Z,3.13
2019-04-11T06:27:57.916Z,3.18
2019-04-11T06:30:28.541Z,3.25
2019-04-11T06:32:54.363Z,3.23
2019-04-11T06:35:06.580Z,3.35
2019-04-11T06:37:41.635Z,3.39
2019-04-11T06:40:02.567Z,3.45
2019-04-11T06:42:40.614Z,3.43
2019-04-11T06:45:01.966Z,3.47
2019-04-11T06:47:27.160Z,3.54
2019-04-11T06:49:53.010Z,3.64
2019-04-11T06:52:02.473Z,3.68
2019-04-11T06:54:23.315Z,3.75
2019-04-11T06:56:41.149Z,3.82
2019-04-11T06:58:53.627Z,3.78
2019-04-11T07:01:05.495Z,3.85
2019-04-11T07:03:22.254Z,3.94
2019-04-11T07:05:24.722Z,3.95
2019-04-11T07:07:35.680Z,4.07
2019-04-11T07:09:49.254Z,4.11
2019-04-11T07:12:01.415Z,4.10
2019-04-11T07:14:26.970Z,4.12
2019-04-11T07:16:36.180Z,4.19
2019-04-11T07:18:53.312Z,4.30
2019-04-11T07:21:03.113Z,4.47
2019-04-11T07:23:28.511Z,4.54
2019-04-11T07:25:55.897Z,4.50
2019-04-11T07:28:11.014Z,4.65
2019-04-11T07:30:37.499Z,4.68
2019-04-11T07:32:45.180Z,4.71
2019-04-11T07:35:10.962Z,4.82
2019-04-11T07:37:32.663Z,4.82
2019-04-11T07:39:58.541Z,4.84
2019-04-11T07:42:23.904Z,4.90
2019-04-11T07:44:32.279Z,4.95
2019-04-11T07:46:55.935Z,4.91
2019-04-11T07:49:08.141Z,4.95
2019-04-11T07:51:34.744Z,5.12
2019-04-11T07:53:45.969Z,5.28
2019-04-11T07:55:55.433Z,5.32
2019-04-11T07:58:21.695Z,5.35
2019-04-11T08:00:52.882Z,5.59
2019-04-11T08:03:25.555Z,5.54
2019-04-11T08:06:03.810Z,5.44
2019-04-11T08:08:32.851Z,5.51
2019-04-11T08:10:45.749Z,5.62
2019-04-11T08:12:54.067Z,5.89
2019-04-11T08:15:38.491Z,6.15
2019-04-11T08:17:46.700Z,6.20
2019-04-11T08:20:25.652Z,6.25
2019-04-11T08:22:39.219Z,6.44
2019-04-11T08:24:56.498Z,6.41
2019-04-11T08:27:32.070Z,6.01
2019-04-11T08:29:39.606Z,5.87
2019-04-11T08:32:12.034Z,5.94
2019-04-11T08:34:20.681Z,5.97
2019-04-11T08:36:50.865Z,6.01
2019-04-11T08:38:58.604Z,5.95
2019-04-11T08:41:13.512Z,5.87
2019-04-11T08:43:27.049Z,5.91
2019-04-11T08:45:35.308Z,5.98
2019-04-11T08:47:49.215Z,5.90
2019-04-11T08:49:58.438Z,6.24
2019-04-11T08:52:11.850Z,6.21
2019-04-11T08:54:53.513Z,6.22
2019-04-11T08:57:01.316Z,6.24
2019-04-11T08:59:35.658Z,6.12
2019-04-11T09:01:44.316Z,6.04
2019-04-11T09:04:15.623Z,6.11
2019-04-11T09:06:30.506Z,6.05
2019-04-11T09:08:59.802Z,6.04
2019-04-11T09:11:26.105Z,6.20
2019-04-11T09:13:56.068Z,6.27
2019-04-11T09:16:21.576Z,6.15
2019-04-11T09:18:30.240Z,6.25
2019-04-11T09:21:00.123Z,6.41
2019-04-11T09:23:13.482Z,6.80
2019-04-11T09:25:43.470Z,6.52
2019-04-11T09:28:11.265Z,6.24
2019-04-11T09:30:28.612Z,6.14
2019-04-11T09:33:01.383Z,6.07
2019-04-11T09:35:18.535Z,5.95
2019-04-11T09:37:36.022Z,6.07
2019-04-11T09:40:15.337Z,6.22
2019-04-11T09:42:43.005Z,6.19
2019-04-11T09:44:59.377Z,6.13
2019-04-11T09:47:38.391Z,6.05
2019-04-11T09:49:51.589Z,6.14
2019-04-11T09:52:07.336Z,6.35
2019-04-11T09:54:26.187Z,6.44
2019-04-11T09:56:56.015Z,6.32
2019-04-11T09:59:09.023Z,6.26
2019-04-11T10:01:35.444Z,6.36
2019-04-11T10:03:45.033Z,6.29
2019-04-11T10:06:26.422Z,6.29
2019-04-11T10:08:59.740Z,6.33
2019-04-11T10:11:32.654Z,6.67
2019-04-11T10:14:01.785Z,6.83
2019-04-11T10:16:31.807Z,6.94
2019-04-11T10:19:01.290Z,6.84
2019-04-11T10:21:09.018Z,6.77
2019-04-11T10:23:45.126Z,6.75
2019-04-11T10:25:56.401Z,6.68
2019-04-11T10:28:21.819Z,6.65
2019-04-11T10:30:48.256Z,6.94
2019-04-11T10:32:59.419Z,6.86
2019-04-11T10:35:24.377Z,6.76
2019-04-11T10:37:32.351Z,6.64
2019-04-11T10:40:05.886Z,6.57
2019-04-11T10:42:14.864Z,6.42
2019-04-11T10:44:28.436Z,6.37
2019-04-11T10:46:49.509Z,6.76
2019-04-11T10:49:05.394Z,7.08
2019-04-11T10:51:30.361Z,7.33
2019-04-11T10:53:39.436Z,7.58
2019-04-11T10:56:09.031Z,8.18
2019-04-11T10:58:22.546Z,8.21
2019-04-11T11:00:40.396Z,8.35
2019-04-11T11:03:09.616Z,8.22
2019-04-11T11:05:19.140Z,7.70
2019-04-11T11:07:30.779Z,7.75
2019-04-11T11:10:03.518Z,7.82
2019-04-11T11:12:25.248Z,7.89
2019-04-11T11:14:55.382Z,7.80
2019-04-11T11:17:10.774Z,7.67
2019-04-11T11:19:50.175Z,7.52
2019-04-11T11:21:45.165Z,7.18
2019-04-11T11:24:11.736Z,7.07
2019-04-11T11:26:26.249Z,7.14
2019-04-11T11:28:36.753Z,7.33
2019-04-11T11:31:03.198Z,7.34
2019-04-11T11:33:11.036Z,7.51
2019-04-11T11:35:50.047Z,7.47
2019-04-11T11:38:06.015Z,7.42
2019-04-11T11:40:32.049Z,7.54
2019-04-11T11:42:58.786Z,7.53
2019-04-11T11:45:14.411Z,7.74
2019-04-11T11:47:41.448Z,7.57
2019-04-11T11:49:57.339Z,7.52
2019-04-11T11:52:35.042Z,7.52
2019-04-11T11:54:46.678Z,7.44
2019-04-11T11:56:56.439Z,7.30
2019-04-11T11:59:25.121Z,7.38
2019-04-11T12:01:32.928Z,7.18
2019-04-11T12:04:01.288Z,7.23
2019-04-11T12:06:09.541Z,7.30
2019-04-11T12:08:54.257Z,7.45
2019-04-11T12:11:05.951Z,7.77
2019-04-11T12:13:32.656Z,8.13
2019-04-11T12:16:03.579Z,8.46
2019-04-11T12:18:49.529Z,8.20
2019-04-11T12:20:59.326Z,8.48
2019-04-11T12:23:15.082Z,8.24
2019-04-11T12:25:25.411Z,8.35
2019-04-11T12:28:00.773Z,8.57
2019-04-11T12:30:30.542Z,8.53
2019-04-11T12:32:37.075Z,8.03
2019-04-11T12:35:00.354Z,8.02
2019-04-11T12:37:12.549Z,7.86
2019-04-11T12:39:47.885Z,7.81
2019-04-11T12:41:57.983Z,7.73
2019-04-11T12:44:23.324Z,8.09
2019-04-11T12:46:48.404Z,8.52
2019-04-11T12:49:00.317Z,8.55
2019-04-11T12:51:39.002Z,8.75
2019-04-11T12:53:48.178Z,8.96
2019-04-11T12:56:20.403Z,9.14
2019-04-11T12:58:30.593Z,9.21
2019-04-11T13:00:53.248Z,8.71
2019-04-11T13:03:18.992Z,8.49
2019-04-11T13:05:26.606Z,8.26
2019-04-11T13:08:05.100Z,7.94
2019-04-11T13:10:25.640Z,7.77
2019-04-11T13:12:54.753Z,7.84
2019-04-11T13:15:27.337Z,7.70
2019-04-11T13:17:37.531Z,7.56
2019-04-11T13:20:04.903Z,7.98
2019-04-11T13:22:17.999Z,8.12
2019-04-11T13:24:53.394Z,8.20
2019-04-11T13:27:12.801Z,8.27
2019-04-11T13:29:45.011Z,8.48
2019-04-11T13:32:10.221Z,8.69
2019-04-11T13:34:17.799Z,8.56
2019-04-11T13:36:50.070Z,8.67
2019-04-11T13:38:57.609Z,8.67
2019-04-11T13:41:42.237Z,9.21
2019-04-11T13:44:06.883Z,9.33
2019-04-11T13:46:25.352Z,9.23
2019-04-11T13:49:01.241Z,9.22
2019-04-11T13:51:14.203Z,8.77
2019-04-11T13:53:39.432Z,8.49
2019-04-11T13:55:46.823Z,8.26
2019-04-11T13:58:13.479Z,8.56
2019-04-11T14:00:41.794Z,8.82
2019-04-11T14:03:11.010Z,8.90
2019-04-11T14:05:18.406Z,9.26
2019-04-11T14:07:26.001Z,8.93
2019-04-11T14:09:41.169Z,8.48
2019-04-11T14:11:50.312Z,8.13
2019-04-11T14:13:57.794Z,7.99
2019-04-11T14:16:10.154Z,7.95
2019-04-11T14:18:29.645Z,8.13
2019-04-11T14:20:49.331Z,8.29
2019-04-11T14:23:18.438Z,8.06
2019-04-11T14:25:53.657Z,8.10
2019-04-11T14:28:02.158Z,7.99
2019-04-11T14:30:35.089Z,7.93
2019-04-11T14:32:45.624Z,8.00
2019-04-11T14:35:10.649Z,8.06
2019-04-11T14:37:38.393Z,8.15
2019-04-11T14:39:46.912Z,8.06
2019-04-11T14:42:16.884Z,8.16
2019-04-11T14:44:24.841Z,8.06
2019-04-11T14:47:09.405Z,8.13
2019-04-11T14:49:18.108Z,8.06
2019-04-11T14:51:36.498Z,8.02
2019-04-11T14:54:18.271Z,8.00
2019-04-11T14:56:27.023Z,7.98
2019-04-11T14:58:53.856Z,8.07
2019-04-11T15:01:01.988Z,7.89
2019-04-11T15:03:34.435Z,7.78
2019-04-11T15:05:46.363Z,7.71
2019-04-11T15:07:54.094Z,7.82
2019-04-11T15:10:19.093Z,7.89
2019-04-11T15:12:27.896Z,7.74
2019-04-11T15:14:52.816Z,7.65
2019-04-11T15:17:19.038Z,7.58
2019-04-11T15:19:26.602Z,7.62
2019-04-11T15:22:11.190Z,7.56
2019-04-11T15:24:19.903Z,7.56
2019-04-11T15:26:54.957Z,7.54
2019-04-11T15:29:08.976Z,7.51
2019-04-11T15:31:39.452Z,7.51
2019-04-11T15:34:08.776Z,7.53
2019-04-11T15:36:17.612Z,7.61
2019-04-11T15:38:43.743Z,7.54
2019-04-11T15:40:54.403Z,7.56
2019-04-11T15:43:32.745Z,7.54
2019-04-11T15:46:01.784Z,7.52
2019-04-11T15:48:43.410Z,7.44
2019-04-11T15:51:18.435Z,7.41
2019-04-11T15:53:34.822Z,7.29
2019-04-11T15:56:01.104Z,7.15
2019-04-11T15:58:12.524Z,7.12
2019-04-11T16:00:36.991Z,7.10
2019-04-11T16:02:59.202Z,7.04
2019-04-11T16:05:24.237Z,6.99
2019-04-11T16:07:50.341Z,6.91
2019-04-11T16:09:57.809Z,6.86
2019-04-11T16:12:18.582Z,6.76
2019-04-11T16:14:37.773Z,6.75
2019-04-11T16:16:52.168Z,6.69
2019-04-11T16:19:17.722Z,6.64
2019-04-11T16:21:33.965Z,6.58
2019-04-11T16:23:58.482Z,6.53
2019-04-11T16:26:09.896Z,6.53
2019-04-11T16:28:55.847Z,6.49
2019-04-11T16:31:03.493Z,6.46
2019-04-11T16:33:28.610Z,6.43
2019-04-11T16:35:58.053Z,6.39
2019-04-11T16:38:07.060Z,6.43
2019-04-11T16:40:53.439Z,6.43
2019-04-11T16:43:05.006Z,6.42
2019-04-11T16:45:40.845Z,6.37
2019-04-11T16:48:02.083Z,6.35
2019-04-11T16:50:10.021Z,6.32
2019-04-11T16:52:17.686Z,6.26
2019-04-11T16:54:25.069Z,6.20
2019-04-11T16:56:32.672Z,6.16
2019-04-11T16:58:40.164Z,6.13
2019-04-11T17:00:52.089Z,6.14
2019-04-11T17:02:56.897Z,6.12
2019-04-11T17:05:05.044Z,6.07
2019-04-11T17:07:31.330Z,6.04
2019-04-11T17:09:44.926Z,6.02
2019-04-11T17:11:52.359Z,5.98
2019-04-11T17:14:00.606Z,5.97
2019-04-11T17:16:12.092Z,5.92
2019-04-11T17:18:19.809Z,5.91
2019-04-11T17:20:27.970Z,5.89
2019-04-11T17:22:35.602Z,5.84
2019-04-11T17:24:43.236Z,5.80
2019-04-11T17:26:52.818Z,5.74
2019-04-11T17:28:59.886Z,5.71
2019-04-11T17:31:07.626Z,5.62
2019-04-11T17:33:15.132Z,5.66
2019-04-11T17:35:22.730Z,5.65
2019-04-11T17:37:30.993Z,5.64
2019-04-11T17:39:39.377Z,5.62
2019-04-11T17:41:46.779Z,5.61
2019-04-11T17:43:54.272Z,5.54
2019-04-11T17:46:01.710Z,5.54
2019-04-11T17:48:10.295Z,5.52
2019-04-11T17:50:18.006Z,5.49
2019-04-11T17:52:25.498Z,5.44
2019-04-11T17:54:32.978Z,5.43
2019-04-11T17:56:40.497Z,5.41
2019-04-11T17:58:48.849Z,5.40
2019-04-11T18:01:00.526Z,5.35
2019-04-11T18:03:11.797Z,5.34
2019-04-11T18:05:17.707Z,5.27
2019-04-11T18:07:26.321Z,5.28
2019-04-11T18:09:34.184Z,5.26
2019-04-11T18:11:42.167Z,5.21
2019-04-11T18:13:49.703Z,5.25
2019-04-11T18:16:00.903Z,5.18
2019-04-11T18:18:07.887Z,5.17
2019-04-11T18:20:16.057Z,5.15
2019-04-11T18:22:23.934Z,5.14
2019-04-11T18:24:31.381Z,5.14
2019-04-11T18:26:39.363Z,4.99
2019-04-11T18:28:47.235Z,5.05
2019-04-11T18:30:54.868Z,5.03
2019-04-11T18:33:04.110Z,5.03
2019-04-11T18:35:12.467Z,5.05
2019-04-11T18:37:20.111Z,5.05
2019-04-11T18:39:27.711Z,5.02
2019-04-11T18:41:35.873Z,4.99
2019-04-11T18:43:46.796Z,4.99
2019-04-11T18:45:53.605Z,4.90
2019-04-11T18:48:01.077Z,4.94
2019-04-11T18:50:11.773Z,4.89
2019-04-11T18:52:20.223Z,4.82
2019-04-11T18:54:28.979Z,4.74
2019-04-11T18:56:38.052Z,4.70
2019-04-11T18:58:45.913Z,4.35
2019-04-11T19:00:53.907Z,4.48
2019-04-11T19:03:01.486Z,4.64
2019-04-11T19:05:10.878Z,4.31
2019-04-11T19:07:27.620Z,4.03
2019-04-11T19:09:29.666Z,3.91
2019-04-11T19:11:37.265Z,3.84
2019-04-11T19:13:47.030Z,3.77
2019-04-11T19:15:54.187Z,3.78
2019-04-11T19:18:06.783Z,4.03
2019-04-11T19:20:11.293Z,4.03
2019-04-11T19:22:20.826Z,4.20
2019-04-11T19:24:35.488Z,4.20
2019-04-11T19:26:37.469Z,4.47
2019-04-11T19:28:46.358Z,4.38
2019-04-11T19:30:56.116Z,4.29
2019-04-11T19:33:03.100Z,4.16
2019-04-11T19:35:10.983Z,4.23
2019-04-11T19:37:18.670Z,3.97
2019-04-11T19:39:30.327Z,4.02
2019-04-11T19:41:38.316Z,3.93
2019-04-11T19:43:48.722Z,3.80
2019-04-11T19:45:55.513Z,3.47
2019-04-11T19:48:03.073Z,3.37
2019-04-11T19:50:11.557Z,3.30
2019-04-11T19:52:19.404Z,3.13
2019-04-11T19:54:26.884Z,3.08
2019-04-11T19:56:39.599Z,2.99
2019-04-11T19:58:47.437Z,3.05
2019-04-11T20:00:55.562Z,2.97
2019-04-11T20:03:03.233Z,2.84
2019-04-11T20:05:12.339Z,2.81
2019-04-11T20:07:20.558Z,2.77
2019-04-11T20:09:29.349Z,2.65
2019-04-11T20:11:36.939Z,2.60
2019-04-11T20:13:44.431Z,2.54
2019-04-11T20:15:51.973Z,2.43
2019-04-11T20:17:59.537Z,2.47
2019-04-11T20:20:07.896Z,2.42
2019-04-11T20:22:15.500Z,2.35
2019-04-11T20:24:23.113Z,2.31
2019-04-11T20:26:30.655Z,2.19
2019-04-11T20:28:38.260Z,2.27
2019-04-11T20:30:46.029Z,2.24
2019-04-11T20:32:53.651Z,2.12
2019-04-11T20:35:01.171Z,2.06
2019-04-11T20:37:12.522Z,2.03
2019-04-11T20:39:18.161Z,2.00
2019-04-11T20:41:25.668Z,1.98
2019-04-11T20:43:33.129Z,1.93
2019-04-11T20:45:41.631Z,1.97
2019-04-11T20:47:49.169Z,1.91
2019-04-11T20:49:56.645Z,1.86
2019-04-11T20:52:04.806Z,1.76
2019-04-11T20:54:12.423Z,1.84
2019-04-11T20:56:24.325Z,1.76
2019-04-11T20:58:28.966Z,1.67
2019-04-11T21:00:49.221Z,1.66
2019-04-11T21:02:46.634Z,1.60
2019-04-11T21:04:54.461Z,1.63
2019-04-11T21:07:02.623Z,1.49
2019-04-11T21:09:12.686Z,1.46
2019-04-11T21:11:20.402Z,1.50
2019-04-11T21:13:27.827Z,1.49
2019-04-11T21:15:35.298Z,1.50
2019-04-11T21:17:42.908Z,1.52
2019-04-11T21:19:50.997Z,1.47
2019-04-11T21:22:00.142Z,1.52
2019-04-11T21:24:07.530Z,1.51
2019-04-11T21:26:15.907Z,1.47
2019-04-11T21:28:23.367Z,1.57
2019-04-11T21:30:31.229Z,1.54
2019-04-11T21:32:38.630Z,1.44
2019-04-11T21:34:46.116Z,1.33
2019-04-11T21:36:53.485Z,1.30
2019-04-11T21:39:03.569Z,1.31
2019-04-11T21:41:10.017Z,1.29
2019-04-11T21:43:17.405Z,1.25
2019-04-11T21:45:24.843Z,1.30
2019-04-11T21:47:32.219Z,1.13
2019-04-11T21:49:39.680Z,1.12
2019-04-11T21:51:47.350Z,1.12
2019-04-11T21:53:54.805Z,1.17
2019-04-11T21:56:02.276Z,1.04
2019-04-11T21:58:09.713Z,1.00
2019-04-11T22:00:27.703Z,0.91
2019-04-11T22:02:35.322Z,0.84
2019-04-11T22:04:42.684Z,0.83
2019-04-11T22:06:50.173Z,0.84
2019-04-11T22:08:57.729Z,0.90
2019-04-11T22:11:05.186Z,0.99
2019-04-11T22:13:12.614Z,0.82
2019-04-11T22:15:19.951Z,0.85
2019-04-11T22:17:27.305Z,0.85
2019-04-11T22:19:34.661Z,0.83
2019-04-11T22:21:45.025Z,0.73
2019-04-11T22:23:51.199Z,0.67
2019-04-11T22:25:58.599Z,0.58
2019-04-11T22:28:05.998Z,0.63
2019-04-11T22:30:15.553Z,0.61
2019-04-11T22:32:23.768Z,0.57
2019-04-11T22:34:44.065Z,0.65
2019-04-11T22:36:51.372Z,0.69
2019-04-11T22:39:01.006Z,0.67
2019-04-11T22:41:07.901Z,1.02
2019-04-11T22:43:24.088Z,1.27
2019-04-11T22:45:24.372Z,1.50
2019-04-11T22:47:31.877Z,1.42
2019-04-11T22:49:40.006Z,1.47
2019-04-11T22:51:47.514Z,1.46
2019-04-11T22:54:00.351Z,1.85
2019-04-11T22:56:04.098Z,1.96
2019-04-11T22:58:13.993Z,2.03
2019-04-11T23:00:20.687Z,2.13
2019-04-11T23:02:47.373Z,2.30
2019-04-11T23:04:54.674Z,2.45
2019-04-11T23:07:02.057Z,2.47
2019-04-11T23:09:09.806Z,2.44
2019-04-11T23:11:17.203Z,2.25
2019-04-11T23:13:24.673Z,2.40
2019-04-11T23:15:32.091Z,2.33
2019-04-11T23:17:41.784Z,2.25
2019-04-11T23:19:48.535Z,2.14
2019-04-11T23:21:55.866Z,2.18
2019-04-11T23:24:11.496Z,2.15
2019-04-11T23:26:12.323Z,2.11
2019-04-11T23:28:19.712Z,2.00
2019-04-11T23:30:27.109Z,1.90
2019-04-11T23:32:34.443Z,1.77
2019-04-11T23:34:41.811Z,1.79
2019-04-11T23:36:51.302Z,1.96
2019-04-11T23:38:58.357Z,2.09
2019-04-11T23:41:05.743Z,2.11
2019-04-11T23:43:15.252Z,2.30
2019-04-11T23:45:25.155Z,2.32
2019-04-11T23:47:32.546Z,2.25
2019-04-11T23:49:39.927Z,2.43
2019-04-11T23:51:47.364Z,2.37
2019-04-11T23:53:59.030Z,2.42
2019-04-11T23:56:03.785Z,2.47
2019-04-11T23:58:11.219Z,2.49
